sensor_id;sensor_type;location;lat;lon;timestamp;pressure;altitude;pressure_sealevel;temperature;humidity
50226;BME280;36113;50.742;6.432;2023-02-16T00:00:45;146549.53;;;6.33;90.35
50226;BME280;36113;50.742;6.432;2023-02-16T00:03:19;146596.94;;;6.53;90.04
50226;BME280;36113;50.742;6.432;2023-02-16T00:05:46;146595.72;;;6.52;89.51
50226;BME280;36113;50.742;6.432;2023-02-16T00:08:11;146596.94;;;6.53;88.83
50226;BME280;36113;50.742;6.432;2023-02-16T00:10:38;146608.19;;;6.57;87.74
50226;BME280;36113;50.742;6.432;2023-02-16T00:13:23;146596.94;;;6.53;86.94
50226;BME280;36113;50.742;6.432;2023-02-16T00:16:13;146593.19;;;6.51;86.17
50226;BME280;36113;50.742;6.432;2023-02-16T00:18:38;146634.41;;;6.68;85.51
50226;BME280;36113;50.742;6.432;2023-02-16T00:21:04;146635.69;;;6.69;84.86
50226;BME280;36113;50.742;6.432;2023-02-16T00:23:29;146631.94;;;6.67;83.87
50226;BME280;36113;50.742;6.432;2023-02-16T00:25:55;146659.41;;;6.79;82.78
50226;BME280;36113;50.742;6.432;2023-02-16T00:28:20;146665.66;;;6.81;81.69
50226;BME280;36113;50.742;6.432;2023-02-16T00:30:46;146659.41;;;6.79;81.03
50226;BME280;36113;50.742;6.432;2023-02-16T00:33:17;146661.91;;;6.80;79.69
50226;BME280;36113;50.742;6.432;2023-02-16T00:35:43;146638.16;;;6.70;78.71
50226;BME280;36113;50.742;6.432;2023-02-16T00:38:09;146674.41;;;6.85;76.92
50226;BME280;36113;50.742;6.432;2023-02-16T00:40:34;146689.38;;;6.91;75.11
50226;BME280;36113;50.742;6.432;2023-02-16T00:43:00;146669.41;;;6.83;74.97
50226;BME280;36113;50.742;6.432;2023-02-16T00:45:25;146674.41;;;6.85;73.90
50226;BME280;36113;50.742;6.432;2023-02-16T00:47:51;146698.16;;;6.94;72.19
50226;BME280;36113;50.742;6.432;2023-02-16T00:50:27;146710.66;;;7.00;70.51
50226;BME280;36113;50.742;6.432;2023-02-16T00:52:53;146704.38;;;6.97;69.54
50226;BME280;36113;50.742;6.432;2023-02-16T00:55:23;146706.88;;;6.98;68.53
50226;BME280;36113;50.742;6.432;2023-02-16T01:00:29;146704.38;;;6.97;67.66
50226;BME280;36113;50.742;6.432;2023-02-16T01:02:59;146701.84;;;6.96;67.49
50226;BME280;36113;50.742;6.432;2023-02-16T01:05:26;146696.88;;;6.94;66.24
50226;BME280;36113;50.742;6.432;2023-02-16T01:07:51;146684.38;;;6.89;66.25
50226;BME280;36113;50.742;6.432;2023-02-16T01:10:36;146650.66;;;6.75;65.59
50226;BME280;36113;50.742;6.432;2023-02-16T01:13:21;146673.16;;;6.84;65.21
50226;BME280;36113;50.742;6.432;2023-02-16T01:15:47;146670.66;;;6.83;64.87
50226;BME280;36113;50.742;6.432;2023-02-16T01:18:15;146656.94;;;6.78;64.87
50226;BME280;36113;50.742;6.432;2023-02-16T01:20:41;146644.44;;;6.72;65.03
50226;BME280;36113;50.742;6.432;2023-02-16T01:23:06;146645.66;;;6.73;63.42
50226;BME280;36113;50.742;6.432;2023-02-16T01:25:32;146648.19;;;6.74;63.86
50226;BME280;36113;50.742;6.432;2023-02-16T01:27:57;146639.41;;;6.70;63.35
50226;BME280;36113;50.742;6.432;2023-02-16T01:30:24;146640.69;;;6.71;63.90
50226;BME280;36113;50.742;6.432;2023-02-16T01:32:50;146606.97;;;6.57;63.91
50226;BME280;36113;50.742;6.432;2023-02-16T01:35:25;146613.19;;;6.60;63.20
50226;BME280;36113;50.742;6.432;2023-02-16T01:37:52;146625.69;;;6.65;64.01
50226;BME280;36113;50.742;6.432;2023-02-16T01:43:19;146635.69;;;6.69;64.30
50226;BME280;36113;50.742;6.432;2023-02-16T01:45:54;146624.44;;;6.64;64.65
50226;BME280;36113;50.742;6.432;2023-02-16T01:48:25;146625.69;;;6.65;65.24
50226;BME280;36113;50.742;6.432;2023-02-16T01:50:58;146554.50;;;6.35;66.19
50226;BME280;36113;50.742;6.432;2023-02-16T01:55:57;146619.47;;;6.62;67.34
50226;BME280;36113;50.742;6.432;2023-02-16T01:58:33;146634.41;;;6.68;67.12
50226;BME280;36113;50.742;6.432;2023-02-16T02:03:27;146623.22;;;6.64;69.27
50226;BME280;36113;50.742;6.432;2023-02-16T02:06:30;146608.19;;;6.57;70.37
50226;BME280;36113;50.742;6.432;2023-02-16T02:09:24;146635.69;;;6.69;71.39
50226;BME280;36113;50.742;6.432;2023-02-16T02:12:05;146650.66;;;6.75;72.48
50226;BME280;36113;50.742;6.432;2023-02-16T02:14:36;146654.41;;;6.76;73.18
50226;BME280;36113;50.742;6.432;2023-02-16T02:17:06;146626.91;;;6.65;74.01
50226;BME280;36113;50.742;6.432;2023-02-16T02:20:07;146639.41;;;6.70;75.16
50226;BME280;36113;50.742;6.432;2023-02-16T02:28:04;146636.94;;;6.69;78.19
50226;BME280;36113;50.742;6.432;2023-02-16T02:30:40;146626.91;;;6.65;78.82
50226;BME280;36113;50.742;6.432;2023-02-16T02:36:35;146565.75;;;6.40;80.00
50226;BME280;36113;50.742;6.432;2023-02-16T02:44:47;146569.50;;;6.42;83.16
50226;BME280;36113;50.742;6.432;2023-02-16T02:47:14;146550.75;;;6.34;84.19
50226;BME280;36113;50.742;6.432;2023-02-16T02:49:39;146540.78;;;6.30;85.46
50226;BME280;36113;50.742;6.432;2023-02-16T02:52:06;146484.56;;;6.07;86.56
50226;BME280;36113;50.742;6.432;2023-02-16T02:54:33;146514.56;;;6.19;88.15
50226;BME280;36113;50.742;6.432;2023-02-16T02:57:32;146498.34;;;6.12;89.02
50226;BME280;36113;50.742;6.432;2023-02-16T03:00:23;146470.88;;;6.01;90.99
50226;BME280;36113;50.742;6.432;2023-02-16T03:05:58;146393.47;;;5.69;95.50
50226;BME280;36113;50.742;6.432;2023-02-16T03:08:28;146420.88;;;5.80;96.63
50226;BME280;36113;50.742;6.432;2023-02-16T03:11:16;146389.72;;;5.68;98.01
50226;BME280;36113;50.742;6.432;2023-02-16T03:14:18;146373.47;;;5.61;99.23
50226;BME280;36113;50.742;6.432;2023-02-16T03:16:47;146369.75;;;5.59;100.00
50226;BME280;36113;50.742;6.432;2023-02-16T03:19:16;146398.44;;;5.71;100.00
50226;BME280;36113;50.742;6.432;2023-02-16T03:22:01;146404.66;;;5.74;100.00
50226;BME280;36113;50.742;6.432;2023-02-16T03:24:45;146433.38;;;5.86;100.00
50226;BME280;36113;50.742;6.432;2023-02-16T03:27:35;146400.91;;;5.72;100.00
50226;BME280;36113;50.742;6.432;2023-02-16T03:30:22;146445.84;;;5.91;100.00
50226;BME280;36113;50.742;6.432;2023-02-16T03:32:49;146324.81;;;5.41;98.91
50226;BME280;36113;50.742;6.432;2023-02-16T03:35:14;146202.56;;;4.91;100.00
50226;BME280;36113;50.742;6.432;2023-02-16T03:37:41;146119.03;;;4.56;100.00
50226;BME280;36113;50.742;6.432;2023-02-16T03:40:10;146145.19;;;4.67;100.00
50226;BME280;36113;50.742;6.432;2023-02-16T03:42:52;146066.66;;;4.35;100.00
50226;BME280;36113;50.742;6.432;2023-02-16T03:45:18;146000.56;;;4.07;100.00
50226;BME280;36113;50.742;6.432;2023-02-16T03:47:44;146090.34;;;4.44;100.00
50226;BME280;36113;50.742;6.432;2023-02-16T03:50:10;146116.53;;;4.55;100.00
50226;BME280;36113;50.742;6.432;2023-02-16T03:52:35;146176.41;;;4.80;100.00
50226;BME280;36113;50.742;6.432;2023-02-16T03:55:01;146267.41;;;5.17;100.00
50226;BME280;36113;50.742;6.432;2023-02-16T03:57:26;146318.59;;;5.38;100.00
50226;BME280;36113;50.742;6.432;2023-02-16T03:59:51;146362.25;;;5.56;100.00
50226;BME280;36113;50.742;6.432;2023-02-16T04:02:20;146398.44;;;5.71;100.00
50226;BME280;36113;50.742;6.432;2023-02-16T04:04:46;146379.69;;;5.63;100.00
50226;BME280;36113;50.742;6.432;2023-02-16T04:07:11;146387.19;;;5.67;100.00
50226;BME280;36113;50.742;6.432;2023-02-16T04:09:36;146405.94;;;5.74;100.00
50226;BME280;36113;50.742;6.432;2023-02-16T04:12:02;146485.88;;;6.07;100.00
50226;BME280;36113;50.742;6.432;2023-02-16T04:14:46;146463.38;;;5.98;100.00
50226;BME280;36113;50.742;6.432;2023-02-16T04:17:11;146509.56;;;6.17;100.00
50226;BME280;36113;50.742;6.432;2023-02-16T04:19:37;146483.34;;;6.06;100.00
50226;BME280;36113;50.742;6.432;2023-02-16T04:22:02;146515.81;;;6.19;100.00
50226;BME280;36113;50.742;6.432;2023-02-16T04:24:28;146535.78;;;6.28;100.00
50226;BME280;36113;50.742;6.432;2023-02-16T04:26:53;146538.28;;;6.29;100.00
50226;BME280;36113;50.742;6.432;2023-02-16T04:29:18;146502.09;;;6.14;100.00
50226;BME280;36113;50.742;6.432;2023-02-16T04:31:43;146553.28;;;6.35;100.00
50226;BME280;36113;50.742;6.432;2023-02-16T04:34:09;146557.03;;;6.36;100.00
50226;BME280;36113;50.742;6.432;2023-02-16T04:36:34;146535.78;;;6.28;100.00
50226;BME280;36113;50.742;6.432;2023-02-16T04:39:00;146580.72;;;6.46;100.00
50226;BME280;36113;50.742;6.432;2023-02-16T04:41:25;146557.03;;;6.36;100.00
50226;BME280;36113;50.742;6.432;2023-02-16T04:43:51;146585.75;;;6.48;100.00
50226;BME280;36113;50.742;6.432;2023-02-16T04:46:16;146588.22;;;6.49;100.00
50226;BME280;36113;50.742;6.432;2023-02-16T04:48:43;146591.97;;;6.51;100.00
50226;BME280;36113;50.742;6.432;2023-02-16T04:51:08;146590.72;;;6.50;100.00
50226;BME280;36113;50.742;6.432;2023-02-16T04:53:33;146582.00;;;6.47;100.00
50226;BME280;36113;50.742;6.432;2023-02-16T04:55:59;146582.00;;;6.47;100.00
50226;BME280;36113;50.742;6.432;2023-02-16T04:58:24;146578.25;;;6.45;100.00
50226;BME280;36113;50.742;6.432;2023-02-16T05:00:49;146600.69;;;6.54;100.00
50226;BME280;36113;50.742;6.432;2023-02-16T05:03:15;146596.94;;;6.53;100.00
50226;BME280;36113;50.742;6.432;2023-02-16T05:05:40;146596.94;;;6.53;100.00
50226;BME280;36113;50.742;6.432;2023-02-16T05:08:05;146594.47;;;6.52;100.00
50226;BME280;36113;50.742;6.432;2023-02-16T05:10:31;146623.22;;;6.64;100.00
50226;BME280;36113;50.742;6.432;2023-02-16T05:12:56;146645.66;;;6.73;100.00
50226;BME280;36113;50.742;6.432;2023-02-16T05:15:40;146623.22;;;6.64;100.00
50226;BME280;36113;50.742;6.432;2023-02-16T05:18:05;146636.94;;;6.69;100.00
50226;BME280;36113;50.742;6.432;2023-02-16T05:20:31;146640.69;;;6.71;100.00
50226;BME280;36113;50.742;6.432;2023-02-16T05:23:14;146646.91;;;6.73;100.00
50226;BME280;36113;50.742;6.432;2023-02-16T05:25:40;146611.97;;;6.59;100.00
50226;BME280;36113;50.742;6.432;2023-02-16T05:28:05;146655.66;;;6.77;100.00
50226;BME280;36113;50.742;6.432;2023-02-16T05:30:31;146596.94;;;6.53;100.00
50226;BME280;36113;50.742;6.432;2023-02-16T05:32:56;146693.13;;;6.92;100.00
50226;BME280;36113;50.742;6.432;2023-02-16T05:35:21;146694.41;;;6.93;99.90
50226;BME280;36113;50.742;6.432;2023-02-16T05:37:46;146694.41;;;6.93;98.58
50226;BME280;36113;50.742;6.432;2023-02-16T05:40:12;146750.59;;;7.16;96.71
50226;BME280;36113;50.742;6.432;2023-02-16T05:42:38;146771.81;;;7.25;95.32
50226;BME280;36113;50.742;6.432;2023-02-16T05:45:03;146799.34;;;7.36;93.92
50226;BME280;36113;50.742;6.432;2023-02-16T05:47:28;146760.56;;;7.20;92.65
50226;BME280;36113;50.742;6.432;2023-02-16T05:49:54;146728.13;;;7.07;91.28
50226;BME280;36113;50.742;6.432;2023-02-16T05:52:19;146823.03;;;7.46;90.04
50226;BME280;36113;50.742;6.432;2023-02-16T05:54:44;146831.78;;;7.49;88.96
50226;BME280;36113;50.742;6.432;2023-02-16T05:57:10;146801.81;;;7.37;88.81
50226;BME280;36113;50.742;6.432;2023-02-16T05:59:35;146768.06;;;7.23;88.16
50226;BME280;36113;50.742;6.432;2023-02-16T06:02:00;146846.81;;;7.56;86.78
50226;BME280;36113;50.742;6.432;2023-02-16T06:04:26;146868.03;;;7.64;85.80
50226;BME280;36113;50.742;6.432;2023-02-16T06:06:52;146825.56;;;7.47;85.48
50226;BME280;36113;50.742;6.432;2023-02-16T06:09:18;146884.31;;;7.71;84.43
50226;BME280;36113;50.742;6.432;2023-02-16T06:11:43;146851.78;;;7.58;83.78
50226;BME280;36113;50.742;6.432;2023-02-16T06:14:14;146879.31;;;7.69;83.05
50226;BME280;36113;50.742;6.432;2023-02-16T06:16:42;146875.56;;;7.67;81.04
50226;BME280;36113;50.742;6.432;2023-02-16T06:19:08;146870.56;;;7.65;81.02
50226;BME280;36113;50.742;6.432;2023-02-16T06:21:34;146918.03;;;7.85;80.38
50226;BME280;36113;50.742;6.432;2023-02-16T06:24:00;146916.81;;;7.84;79.80
50226;BME280;36113;50.742;6.432;2023-02-16T06:26:26;146920.56;;;7.86;80.20
50226;BME280;36113;50.742;6.432;2023-02-16T06:28:51;146875.56;;;7.67;79.58
50226;BME280;36113;50.742;6.432;2023-02-16T06:31:17;146906.78;;;7.80;79.06
50226;BME280;36113;50.742;6.432;2023-02-16T06:33:42;146924.31;;;7.87;78.75
50226;BME280;36113;50.742;6.432;2023-02-16T06:36:08;146871.81;;;7.66;80.08
50226;BME280;36113;50.742;6.432;2023-02-16T06:38:34;146850.56;;;7.57;81.37
50226;BME280;36113;50.742;6.432;2023-02-16T06:40:59;146846.81;;;7.56;82.55
50226;BME280;36113;50.742;6.432;2023-02-16T06:43:25;146794.34;;;7.34;84.17
50226;BME280;36113;50.742;6.432;2023-02-16T06:45:50;146800.56;;;7.37;85.61
50226;BME280;36113;50.742;6.432;2023-02-16T06:48:15;146769.34;;;7.24;86.69
50226;BME280;36113;50.742;6.432;2023-02-16T06:50:40;146739.34;;;7.11;88.07
50226;BME280;36113;50.742;6.432;2023-02-16T06:53:06;146701.84;;;6.96;89.44
50226;BME280;36113;50.742;6.432;2023-02-16T06:55:31;146704.38;;;6.97;89.99
50226;BME280;36113;50.742;6.432;2023-02-16T06:58:01;146678.16;;;6.86;91.38
50226;BME280;36113;50.742;6.432;2023-02-16T07:00:27;146649.41;;;6.74;92.52
50226;BME280;36113;50.742;6.432;2023-02-16T07:02:53;146629.44;;;6.66;93.15
50226;BME280;36113;50.742;6.432;2023-02-16T07:05:19;146600.69;;;6.54;93.91
50226;BME280;36113;50.742;6.432;2023-02-16T07:07:44;146582.00;;;6.47;93.93
50226;BME280;36113;50.742;6.432;2023-02-16T07:10:09;146613.19;;;6.60;94.35
50226;BME280;36113;50.742;6.432;2023-02-16T07:12:35;146616.94;;;6.61;94.50
50226;BME280;36113;50.742;6.432;2023-02-16T07:15:00;146634.41;;;6.68;94.51
50226;BME280;36113;50.742;6.432;2023-02-16T07:17:25;146639.41;;;6.70;95.09
50226;BME280;36113;50.742;6.432;2023-02-16T07:19:50;146628.19;;;6.66;95.32
50226;BME280;36113;50.742;6.432;2023-02-16T07:22:16;146621.94;;;6.63;96.06
50226;BME280;36113;50.742;6.432;2023-02-16T07:24:42;146626.91;;;6.65;96.69
50226;BME280;36113;50.742;6.432;2023-02-16T07:27:07;146598.22;;;6.53;96.78
50226;BME280;36113;50.742;6.432;2023-02-16T07:29:33;146629.44;;;6.66;96.86
50226;BME280;36113;50.742;6.432;2023-02-16T07:31:58;146634.41;;;6.68;97.28
50226;BME280;36113;50.742;6.432;2023-02-16T07:34:23;146625.69;;;6.65;98.11
50226;BME280;36113;50.742;6.432;2023-02-16T07:36:48;146565.75;;;6.40;98.76
50226;BME280;36113;50.742;6.432;2023-02-16T07:39:14;146625.69;;;6.65;98.54
50226;BME280;36113;50.742;6.432;2023-02-16T07:41:39;146563.25;;;6.39;99.17
50226;BME280;36113;50.742;6.432;2023-02-16T07:44:05;146605.69;;;6.56;99.53
50226;BME280;36113;50.742;6.432;2023-02-16T07:46:30;146563.25;;;6.39;100.00
50226;BME280;36113;50.742;6.432;2023-02-16T07:48:55;146554.50;;;6.35;100.00
50226;BME280;36113;50.742;6.432;2023-02-16T07:51:23;146613.19;;;6.60;100.00
50226;BME280;36113;50.742;6.432;2023-02-16T07:53:48;146618.19;;;6.62;100.00
50226;BME280;36113;50.742;6.432;2023-02-16T07:56:25;146611.97;;;6.59;100.00
50226;BME280;36113;50.742;6.432;2023-02-16T07:58:52;146628.19;;;6.66;100.00
50226;BME280;36113;50.742;6.432;2023-02-16T08:01:17;146630.66;;;6.67;100.00
50226;BME280;36113;50.742;6.432;2023-02-16T08:03:43;146645.66;;;6.73;100.00
50226;BME280;36113;50.742;6.432;2023-02-16T08:06:08;146654.41;;;6.76;100.00
50226;BME280;36113;50.742;6.432;2023-02-16T08:08:35;146666.91;;;6.82;100.00
50226;BME280;36113;50.742;6.432;2023-02-16T08:11:14;146681.91;;;6.88;100.00
50226;BME280;36113;50.742;6.432;2023-02-16T08:13:40;146700.63;;;6.95;100.00
50226;BME280;36113;50.742;6.432;2023-02-16T08:16:22;146721.84;;;7.04;100.00
50226;BME280;36113;50.742;6.432;2023-02-16T08:18:48;146754.34;;;7.18;100.00
50226;BME280;36113;50.742;6.432;2023-02-16T08:21:20;146759.34;;;7.20;100.00
50226;BME280;36113;50.742;6.432;2023-02-16T08:23:52;146793.06;;;7.33;100.00
50226;BME280;36113;50.742;6.432;2023-02-16T08:26:19;146805.56;;;7.39;100.00
50226;BME280;36113;50.742;6.432;2023-02-16T08:28:47;146831.78;;;7.49;99.67
50226;BME280;36113;50.742;6.432;2023-02-16T08:31:15;146858.06;;;7.60;99.06
50226;BME280;36113;50.742;6.432;2023-02-16T08:33:42;146884.31;;;7.71;98.40
50226;BME280;36113;50.742;6.432;2023-02-16T08:36:18;146929.31;;;7.89;97.84
50226;BME280;36113;50.742;6.432;2023-02-16T08:38:45;146949.31;;;7.98;97.26
50226;BME280;36113;50.742;6.432;2023-02-16T08:41:14;146985.53;;;8.13;95.93
50226;BME280;36113;50.742;6.432;2023-02-16T08:43:40;147023.06;;;8.28;95.29
50226;BME280;36113;50.742;6.432;2023-02-16T08:46:05;147051.81;;;8.40;94.39
50226;BME280;36113;50.742;6.432;2023-02-16T08:48:32;147038.09;;;8.34;93.79
50226;BME280;36113;50.742;6.432;2023-02-16T08:51:00;147109.41;;;8.63;93.35
50226;BME280;36113;50.742;6.432;2023-02-16T08:53:26;147103.13;;;8.61;91.63
50226;BME280;36113;50.742;6.432;2023-02-16T08:55:56;147133.19;;;8.73;91.62
50226;BME280;36113;50.742;6.432;2023-02-16T08:58:22;147198.22;;;9.00;90.70
50226;BME280;36113;50.742;6.432;2023-02-16T09:00:48;147253.25;;;9.23;90.65
50226;BME280;36113;50.742;6.432;2023-02-16T09:03:14;147230.75;;;9.13;90.74
50226;BME280;36113;50.742;6.432;2023-02-16T09:05:40;147303.31;;;9.43;90.89
50226;BME280;36113;50.742;6.432;2023-02-16T09:08:06;147317.06;;;9.49;90.40
50226;BME280;36113;50.742;6.432;2023-02-16T09:10:31;147424.75;;;9.93;89.48
50226;BME280;36113;50.742;6.432;2023-02-16T09:12:57;147498.63;;;10.23;88.64
50226;BME280;36113;50.742;6.432;2023-02-16T09:15:22;147531.25;;;10.37;88.42
50226;BME280;36113;50.742;6.432;2023-02-16T09:17:47;147583.81;;;10.58;88.80
50226;BME280;36113;50.742;6.432;2023-02-16T09:20:13;147616.41;;;10.72;87.81
50226;BME280;36113;50.742;6.432;2023-02-16T09:22:42;147631.41;;;10.78;87.36
50226;BME280;36113;50.742;6.432;2023-02-16T09:25:08;147632.69;;;10.78;88.27
50226;BME280;36113;50.742;6.432;2023-02-16T09:27:35;147618.88;;;10.73;88.29
50226;BME280;36113;50.742;6.432;2023-02-16T09:30:00;147621.41;;;10.74;89.55
50226;BME280;36113;50.742;6.432;2023-02-16T09:32:29;147616.41;;;10.72;89.36
50226;BME280;36113;50.742;6.432;2023-02-16T09:34:55;147582.59;;;10.58;91.19
50226;BME280;36113;50.742;6.432;2023-02-16T09:37:20;147616.41;;;10.72;90.12
50226;BME280;36113;50.742;6.432;2023-02-16T09:39:45;147635.16;;;10.79;89.84
50226;BME280;36113;50.742;6.432;2023-02-16T09:42:46;147638.94;;;10.81;90.78
50226;BME280;36113;50.742;6.432;2023-02-16T09:45:15;147626.41;;;10.76;90.45
50226;BME280;36113;50.742;6.432;2023-02-16T09:47:45;147628.94;;;10.77;90.31
50226;BME280;36113;50.742;6.432;2023-02-16T09:52:39;147602.63;;;10.66;91.53
50226;BME280;36113;50.742;6.432;2023-02-16T09:55:11;147562.53;;;10.49;92.09
50226;BME280;36113;50.742;6.432;2023-02-16T09:58:04;147592.59;;;10.62;90.97
50226;BME280;36113;50.742;6.432;2023-02-16T10:00:37;147542.47;;;10.41;91.91
50226;BME280;36113;50.742;6.432;2023-02-16T10:08:48;147462.28;;;10.08;91.48
50226;BME280;36113;50.742;6.432;2023-02-16T10:11:23;147551.25;;;10.45;90.67
50226;BME280;36113;50.742;6.432;2023-02-16T10:14:12;147545.00;;;10.42;90.58
50226;BME280;36113;50.742;6.432;2023-02-16T10:16:45;147522.44;;;10.33;89.43
50226;BME280;36113;50.742;6.432;2023-02-16T10:20:10;147542.47;;;10.41;90.35
50226;BME280;36113;50.742;6.432;2023-02-16T10:22:14;147555.00;;;10.46;90.98
50226;BME280;36113;50.742;6.432;2023-02-16T10:24:48;147514.91;;;10.30;90.33
50226;BME280;36113;50.742;6.432;2023-02-16T10:27:26;147514.91;;;10.30;89.60
50226;BME280;36113;50.742;6.432;2023-02-16T10:29:53;147578.81;;;10.56;90.44
50226;BME280;36113;50.742;6.432;2023-02-16T10:32:26;147598.88;;;10.64;89.40
50226;BME280;36113;50.742;6.432;2023-02-16T10:35:03;147640.22;;;10.81;89.98
50226;BME280;36113;50.742;6.432;2023-02-16T10:37:54;147653.97;;;10.87;89.48
50226;BME280;36113;50.742;6.432;2023-02-16T10:40:42;147663.97;;;10.91;89.09
50226;BME280;36113;50.742;6.432;2023-02-16T10:43:37;147670.28;;;10.94;87.69
50226;BME280;36113;50.742;6.432;2023-02-16T10:45:59;147637.69;;;10.80;89.26
50226;BME280;36113;50.742;6.432;2023-02-16T10:48:25;147626.41;;;10.76;90.32
50226;BME280;36113;50.742;6.432;2023-02-16T10:51:11;147582.59;;;10.58;90.25
50226;BME280;36113;50.742;6.432;2023-02-16T10:53:54;147543.78;;;10.42;90.51
50226;BME280;36113;50.742;6.432;2023-02-16T10:56:44;147593.81;;;10.62;91.29
50226;BME280;36113;50.742;6.432;2023-02-16T11:01:58;147571.28;;;10.53;92.75
50226;BME280;36113;50.742;6.432;2023-02-16T11:07:03;147571.28;;;10.53;93.59
50226;BME280;36113;50.742;6.432;2023-02-16T11:09:29;147581.28;;;10.57;94.06
50226;BME280;36113;50.742;6.432;2023-02-16T11:11:55;147587.59;;;10.60;94.54
50226;BME280;36113;50.742;6.432;2023-02-16T11:14:22;147588.81;;;10.60;94.47
50226;BME280;36113;50.742;6.432;2023-02-16T11:17:11;147595.09;;;10.63;94.42
50226;BME280;36113;50.742;6.432;2023-02-16T11:19:38;147607.63;;;10.68;94.40
50226;BME280;36113;50.742;6.432;2023-02-16T11:22:25;147580.06;;;10.57;94.91
50226;BME280;36113;50.742;6.432;2023-02-16T11:24:51;147625.16;;;10.75;95.43
50226;BME280;36113;50.742;6.432;2023-02-16T11:27:22;147623.94;;;10.75;95.62
50226;BME280;36113;50.742;6.432;2023-02-16T11:29:48;147625.16;;;10.75;96.50
50226;BME280;36113;50.742;6.432;2023-02-16T11:32:17;147617.63;;;10.72;95.66
50226;BME280;36113;50.742;6.432;2023-02-16T11:34:48;147621.41;;;10.74;96.04
50226;BME280;36113;50.742;6.432;2023-02-16T11:37:27;147566.28;;;10.51;96.70
50226;BME280;36113;50.742;6.432;2023-02-16T11:39:56;147603.88;;;10.66;96.54
50226;BME280;36113;50.742;6.432;2023-02-16T11:42:39;147645.22;;;10.83;96.16
50226;BME280;36113;50.742;6.432;2023-02-16T11:45:06;147641.44;;;10.82;95.39
50226;BME280;36113;50.742;6.432;2023-02-16T11:47:38;147607.63;;;10.68;95.68
50226;BME280;36113;50.742;6.432;2023-02-16T11:50:23;147646.47;;;10.84;94.64
50226;BME280;36113;50.742;6.432;2023-02-16T11:53:21;147645.22;;;10.83;95.35
50226;BME280;36113;50.742;6.432;2023-02-16T11:55:46;147616.41;;;10.72;95.72
50226;BME280;36113;50.742;6.432;2023-02-16T12:00:40;147689.03;;;11.01;95.28
50226;BME280;36113;50.742;6.432;2023-02-16T12:03:28;147680.28;;;10.98;93.15
50226;BME280;36113;50.742;6.432;2023-02-16T12:06:21;147695.34;;;11.04;91.30
50226;BME280;36113;50.742;6.432;2023-02-16T12:09:11;147680.28;;;10.98;91.02
50226;BME280;36113;50.742;6.432;2023-02-16T12:11:43;147697.81;;;11.05;91.66
50226;BME280;36113;50.742;6.432;2023-02-16T12:14:25;147705.34;;;11.08;91.70
50226;BME280;36113;50.742;6.432;2023-02-16T12:16:59;147715.34;;;11.12;90.79
50226;BME280;36113;50.742;6.432;2023-02-16T12:22:05;147647.69;;;10.84;94.16
50226;BME280;36113;50.742;6.432;2023-02-16T12:27:11;147692.81;;;11.03;89.30
50226;BME280;36113;50.742;6.432;2023-02-16T12:32:33;147711.63;;;11.11;90.18
50226;BME280;36113;50.742;6.432;2023-02-16T12:35:15;147725.41;;;11.16;91.23
50226;BME280;36113;50.742;6.432;2023-02-16T12:45:42;147820.66;;;11.55;89.11
50226;BME280;36113;50.742;6.432;2023-02-16T12:50:53;147845.72;;;11.66;88.12
50226;BME280;36113;50.742;6.432;2023-02-16T12:56:13;147884.56;;;11.81;86.19
50226;BME280;36113;50.742;6.432;2023-02-16T12:58:45;147900.88;;;11.88;85.20
50226;BME280;36113;50.742;6.432;2023-02-16T13:04:00;147848.22;;;11.67;85.18
50226;BME280;36113;50.742;6.432;2023-02-16T13:06:32;147858.25;;;11.71;85.64
50226;BME280;36113;50.742;6.432;2023-02-16T13:09:36;147889.59;;;11.83;85.65
50226;BME280;36113;50.742;6.432;2023-02-16T13:14:43;147864.50;;;11.73;86.56
50226;BME280;36113;50.742;6.432;2023-02-16T13:17:27;147918.47;;;11.95;84.73
50226;BME280;36113;50.742;6.432;2023-02-16T13:19:55;147933.50;;;12.01;83.62
50226;BME280;36113;50.742;6.432;2023-02-16T13:25:51;147949.81;;;12.08;79.24
50226;BME280;36113;50.742;6.432;2023-02-16T13:31:45;147981.19;;;12.21;76.85
50226;BME280;36113;50.742;6.432;2023-02-16T13:37:17;147956.09;;;12.11;72.74
50226;BME280;36113;50.742;6.432;2023-02-16T13:40:10;147988.72;;;12.24;71.45
50226;BME280;36113;50.742;6.432;2023-02-16T13:42:50;147992.47;;;12.26;72.15
50226;BME280;36113;50.742;6.432;2023-02-16T13:45:26;148018.81;;;12.36;72.57
50226;BME280;36113;50.742;6.432;2023-02-16T13:47:53;148047.66;;;12.48;73.42
50226;BME280;36113;50.742;6.432;2023-02-16T13:52:46;148124.16;;;12.80;68.03
50226;BME280;36113;50.742;6.432;2023-02-16T13:55:26;148086.53;;;12.64;66.73
50226;BME280;36113;50.742;6.432;2023-02-16T14:00:31;148068.97;;;12.57;67.64
50226;BME280;36113;50.742;6.432;2023-02-16T14:03:07;148131.69;;;12.83;68.55
50226;BME280;36113;50.742;6.432;2023-02-16T14:05:37;148141.72;;;12.87;68.27
50226;BME280;36113;50.742;6.432;2023-02-16T14:13:30;148056.44;;;12.52;68.84
50226;BME280;36113;50.742;6.432;2023-02-16T14:16:02;148089.06;;;12.65;68.76
50226;BME280;36113;50.742;6.432;2023-02-16T14:21:02;148111.63;;;12.74;68.40
50226;BME280;36113;50.742;6.432;2023-02-16T14:23:30;148089.06;;;12.65;67.43
50226;BME280;36113;50.742;6.432;2023-02-16T14:26:06;148106.59;;;12.72;67.79
50226;BME280;36113;50.742;6.432;2023-02-16T14:30:59;148099.06;;;12.69;67.90
50226;BME280;36113;50.742;6.432;2023-02-16T14:33:39;148094.06;;;12.67;69.70
50226;BME280;36113;50.742;6.432;2023-02-16T14:36:13;148042.59;;;12.46;69.00
50226;BME280;36113;50.742;6.432;2023-02-16T14:38:46;148068.97;;;12.57;71.50
50226;BME280;36113;50.742;6.432;2023-02-16T14:43:47;148037.59;;;12.44;74.21
50226;BME280;36113;50.742;6.432;2023-02-16T14:46:44;148043.88;;;12.47;75.55
50226;BME280;36113;50.742;6.432;2023-02-16T14:57:12;147879.56;;;11.79;79.53
50226;BME280;36113;50.742;6.432;2023-02-16T15:02:53;147956.09;;;12.11;81.25